Time;durP1;ratioP1;P1;durP2;ratioP2;P2;SDS_P1;SDS_P2;PMS_P1;PMS_P2;Temp;Humidity;BMP_temperature;BMP_pressure;BME280_temperature;BME280_humidity;BME280_pressure;Samples;Min_cycle;Max_cycle;Signal;HPM_P1;HPM_P2
2021/01/31 00:02:11;;;;;;;9.00;7.17;;;19.60;40.50;;;;;;4969684;28;20486;-69
2021/01/31 00:04:37;;;;;;;8.50;6.50;;;19.70;40.40;;;;;;4968410;28;21077;-68
2021/01/31 00:07:03;;;;;;;8.43;6.50;;;19.70;40.30;;;;;;4968437;28;20495;-68
2021/01/31 00:09:30;;;;;;;13.77;9.27;;;19.60;40.20;;;;;;4971245;28;20486;-68
2021/01/31 00:11:56;;;;;;;8.53;7.33;;;19.60;40.10;;;;;;4970065;28;20486;-68
2021/01/31 00:14:22;;;;;;;9.97;8.03;;;19.60;39.90;;;;;;4981899;28;20585;-68
2021/01/31 00:16:48;;;;;;;12.27;9.17;;;19.60;40.30;;;;;;5029568;28;20635;-68
2021/01/31 00:19:15;;;;;;;10.70;7.37;;;19.60;40.30;;;;;;4972860;28;20492;-68
2021/01/31 00:21:41;;;;;;;8.83;7.40;;;19.60;40.30;;;;;;4970012;28;20520;-68
2021/01/31 00:24:08;;;;;;;7.43;6.67;;;19.60;40.10;;;;;;4966307;28;20498;-68
2021/01/31 00:26:34;;;;;;;9.47;7.73;;;19.60;40.10;;;;;;4971174;28;20477;-68
2021/01/31 00:29:00;;;;;;;9.90;7.47;;;19.70;41.10;;;;;;4968199;28;20509;-68
2021/01/31 00:31:26;;;;;;;12.83;7.63;;;19.70;40.50;;;;;;4968236;28;20574;-68
2021/01/31 00:33:52;;;;;;;10.43;7.50;;;19.60;40.60;;;;;;4967653;28;20493;-69
2021/01/31 00:36:19;;;;;;;10.67;7.00;;;19.60;40.80;;;;;;4968996;28;20489;-69
2021/01/31 00:38:45;;;;;;;11.60;7.30;;;19.60;40.80;;;;;;4970870;28;20492;-68
2021/01/31 00:41:11;;;;;;;7.70;6.43;;;19.50;40.60;;;;;;4971764;28;20486;-68
2021/01/31 00:43:37;;;;;;;8.50;6.60;;;19.60;40.60;;;;;;4965095;28;20482;-69
2021/01/31 00:46:04;;;;;;;8.10;6.90;;;19.60;40.40;;;;;;4969617;28;20891;-68
2021/01/31 00:48:30;;;;;;;7.90;6.70;;;19.60;40.50;;;;;;4969356;28;20563;-68
2021/01/31 00:50:56;;;;;;;8.53;7.03;;;19.60;40.20;;;;;;4964787;28;20473;-68
2021/01/31 00:53:23;;;;;;;7.40;6.60;;;19.60;40.20;;;;;;4983143;28;20489;-68
2021/01/31 00:55:49;;;;;;;7.80;6.90;;;19.50;40.00;;;;;;4962822;28;20487;-68
2021/01/31 00:58:15;;;;;;;7.50;6.80;;;19.60;40.10;;;;;;5015667;28;20479;-68
2021/01/31 01:00:41;;;;;;;7.20;6.50;;;19.50;40.00;;;;;;4988871;28;20486;-69
2021/01/31 01:03:08;;;;;;;11.70;7.33;;;19.50;40.10;;;;;;4970295;28;20496;-68
2021/01/31 01:05:34;;;;;;;7.73;6.47;;;19.50;40.00;;;;;;4966160;28;20506;-69
2021/01/31 01:08:01;;;;;;;10.30;7.00;;;19.50;40.30;;;;;;5030423;28;20496;-68
2021/01/31 01:10:30;;;;;;;7.83;7.03;;;19.50;40.10;;;;;;4982573;28;20501;-68
2021/01/31 01:12:56;;;;;;;7.67;6.87;;;19.50;40.10;;;;;;4965628;28;20496;-69
2021/01/31 01:15:24;;;;;;;7.40;6.70;;;19.50;40.20;;;;;;4968044;28;20493;-69
2021/01/31 01:17:50;;;;;;;9.33;6.20;;;19.50;40.00;;;;;;4967356;28;20489;-69
2021/01/31 01:20:16;;;;;;;6.10;5.60;;;19.50;40.30;;;;;;4971060;28;20477;-68
2021/01/31 01:22:43;;;;;;;5.70;5.27;;;19.50;40.20;;;;;;4968151;28;20978;-69
2021/01/31 01:25:12;;;;;;;7.67;6.27;;;19.60;40.10;;;;;;4968191;28;20490;-68
2021/01/31 01:27:39;;;;;;;6.37;5.77;;;19.60;40.20;;;;;;4969597;28;20481;-68
2021/01/31 01:30:06;;;;;;;7.17;6.43;;;19.60;40.20;;;;;;4966456;28;20509;-67
2021/01/31 01:32:32;;;;;;;7.50;6.90;;;19.60;40.10;;;;;;4967751;28;20479;-68
2021/01/31 01:34:58;;;;;;;7.23;6.50;;;19.60;39.90;;;;;;4967801;28;21280;-68
2021/01/31 01:37:24;;;;;;;7.10;6.50;;;19.60;40.00;;;;;;4969170;28;20833;-68
2021/01/31 01:39:51;;;;;;;8.27;6.97;;;19.60;39.90;;;;;;4967294;28;20489;-69
2021/01/31 01:42:17;;;;;;;8.23;6.60;;;19.60;39.80;;;;;;4969629;28;20508;-68
2021/01/31 01:44:44;;;;;;;6.50;5.83;;;19.50;39.60;;;;;;4968445;28;20477;-68
2021/01/31 01:47:14;;;;;;;7.40;6.60;;;19.50;39.50;;;;;;4969628;28;20504;-68
2021/01/31 01:49:41;;;;;;;6.27;5.73;;;19.50;40.00;;;;;;4967615;28;21049;-68
2021/01/31 01:52:09;;;;;;;7.43;6.40;;;19.50;39.90;;;;;;4967334;28;20482;-68
2021/01/31 01:54:40;;;;;;;6.60;6.00;;;19.50;40.00;;;;;;4966217;28;20481;-69
2021/01/31 01:57:08;;;;;;;7.00;6.30;;;19.50;39.80;;;;;;4969876;28;20490;-69
2021/01/31 01:59:34;;;;;;;6.13;5.53;;;19.50;40.00;;;;;;4966382;28;20490;-68
2021/01/31 02:02:06;;;;;;;5.93;5.43;;;19.50;40.00;;;;;;4964999;28;20528;-69
2021/01/31 02:04:32;;;;;;;6.30;5.70;;;19.50;39.70;;;;;;4967685;28;20478;-68
2021/01/31 02:06:58;;;;;;;6.00;5.57;;;19.50;39.60;;;;;;5039732;28;20493;-68
2021/01/31 02:09:24;;;;;;;7.47;5.60;;;19.50;40.00;;;;;;5004004;28;20582;-68
2021/01/31 02:11:52;;;;;;;6.53;5.90;;;19.50;40.00;;;;;;5006320;28;21024;-69
2021/01/31 02:14:19;;;;;;;6.23;5.63;;;19.50;39.80;;;;;;4969003;28;20489;-69
2021/01/31 02:16:51;;;;;;;5.87;5.37;;;19.50;39.80;;;;;;4974891;28;20481;-67
2021/01/31 02:19:44;;;;;;;6.43;5.80;;;19.50;39.70;;;;;;4965468;28;20515;-68
2021/01/31 02:22:24;;;;;;;5.70;5.20;;;19.60;39.80;;;;;;5013034;28;20474;-68
2021/01/31 02:25:09;;;;;;;5.90;5.33;;;19.50;39.70;;;;;;4969150;28;20493;-68
2021/01/31 02:28:02;;;;;;;6.27;5.67;;;19.50;39.90;;;;;;4973497;28;20489;-68
2021/01/31 02:30:49;;;;;;;5.50;5.00;;;19.50;39.70;;;;;;5019765;28;20476;-68
2021/01/31 02:33:42;;;;;;;6.27;5.77;;;19.50;40.10;;;;;;5055122;28;20473;-69
2021/01/31 02:36:11;;;;;;;5.37;4.87;;;19.60;40.30;;;;;;4979653;28;21446;-68
2021/01/31 02:38:41;;;;;;;5.00;4.50;;;19.60;41.20;;;;;;4974696;28;20481;-68
2021/01/31 02:41:08;;;;;;;5.50;5.00;;;19.60;40.00;;;;;;4970145;28;20489;-69
2021/01/31 02:43:40;;;;;;;5.73;5.13;;;19.60;39.70;;;;;;4970655;28;20509;-68
2021/01/31 02:46:09;;;;;;;4.97;4.40;;;19.50;39.60;;;;;;4973847;28;20491;-68
2021/01/31 02:48:39;;;;;;;4.93;4.53;;;19.60;39.70;;;;;;4976088;28;20480;-68
2021/01/31 02:51:09;;;;;;;4.50;4.20;;;19.50;39.80;;;;;;4970222;28;20523;-67
2021/01/31 02:53:37;;;;;;;4.43;4.23;;;19.60;40.00;;;;;;4974054;28;21037;-67
2021/01/31 02:56:05;;;;;;;5.00;4.70;;;19.60;40.10;;;;;;4974536;28;20478;-68
2021/01/31 02:58:33;;;;;;;5.07;4.77;;;19.50;40.10;;;;;;5041686;28;20488;-68
2021/01/31 03:01:01;;;;;;;4.87;4.47;;;19.50;40.10;;;;;;4969163;28;20486;-68
2021/01/31 03:03:28;;;;;;;4.90;4.60;;;19.60;40.70;;;;;;4967750;28;20610;-67
2021/01/31 03:05:56;;;;;;;4.37;4.10;;;19.60;40.30;;;;;;4964517;28;20497;-68
2021/01/31 03:08:24;;;;;;;4.13;3.83;;;19.50;40.10;;;;;;4971534;28;20493;-68
2021/01/31 03:10:53;;;;;;;4.70;4.30;;;19.60;39.90;;;;;;4968614;28;20533;-69
2021/01/31 03:13:21;;;;;;;4.23;3.93;;;19.50;39.70;;;;;;4969018;28;20543;-70
2021/01/31 03:15:49;;;;;;;4.80;4.50;;;19.60;39.70;;;;;;4972818;28;20474;-68
2021/01/31 03:18:18;;;;;;;4.70;4.30;;;19.50;39.50;;;;;;5025806;28;20478;-68
2021/01/31 03:20:48;;;;;;;4.00;3.80;;;19.50;39.40;;;;;;4972763;28;20484;-68
2021/01/31 03:23:18;;;;;;;4.93;4.40;;;19.50;39.50;;;;;;5017100;28;20485;-68
2021/01/31 03:25:45;;;;;;;3.27;3.13;;;19.50;39.60;;;;;;4993005;28;20492;-69
2021/01/31 03:28:11;;;;;;;5.27;4.80;;;19.50;39.50;;;;;;4971971;28;20535;-69
2021/01/31 03:30:37;;;;;;;4.27;3.97;;;19.50;39.50;;;;;;4966774;28;20923;-68
2021/01/31 03:33:05;;;;;;;4.00;3.80;;;19.50;39.70;;;;;;4970026;28;20501;-67
2021/01/31 03:35:33;;;;;;;4.90;4.40;;;19.50;39.60;;;;;;4967144;28;20494;-67
2021/01/31 03:38:03;;;;;;;3.93;3.63;;;19.50;39.50;;;;;;5029945;28;20489;-68
2021/01/31 03:40:30;;;;;;;3.93;3.70;;;19.50;39.50;;;;;;4982860;28;20558;-69
2021/01/31 03:42:56;;;;;;;3.87;3.57;;;19.50;39.60;;;;;;4969422;28;21001;-68
2021/01/31 03:45:27;;;;;;;3.80;3.50;;;19.50;39.50;;;;;;4970026;28;20549;-68
2021/01/31 03:47:56;;;;;;;4.13;3.83;;;19.50;39.70;;;;;;4972148;28;20538;-68
2021/01/31 03:50:22;;;;;;;3.30;3.03;;;19.50;39.70;;;;;;4971566;28;20542;-68
2021/01/31 03:52:48;;;;;;;4.40;4.00;;;19.50;39.70;;;;;;4965232;28;20496;-68
2021/01/31 03:55:14;;;;;;;3.17;3.03;;;19.50;39.70;;;;;;5023993;28;20486;-68
2021/01/31 03:57:43;;;;;;;3.87;3.57;;;19.50;39.50;;;;;;4972364;28;20478;-68
2021/01/31 04:00:11;;;;;;;3.73;3.53;;;19.50;39.50;;;;;;4968114;28;20569;-68
2021/01/31 04:02:40;;;;;;;3.30;3.10;;;19.50;39.60;;;;;;4970935;28;21158;-68
2021/01/31 04:05:07;;;;;;;3.57;3.30;;;19.50;39.30;;;;;;4966120;28;20855;-68
2021/01/31 04:07:35;;;;;;;3.00;2.80;;;19.50;39.50;;;;;;4970664;28;20478;-68
2021/01/31 04:10:02;;;;;;;3.30;3.10;;;19.50;39.50;;;;;;4971725;28;20565;-68
2021/01/31 04:12:31;;;;;;;3.60;3.40;;;19.50;39.40;;;;;;4969602;28;20482;-68
2021/01/31 04:15:02;;;;;;;2.93;2.80;;;19.50;39.50;;;;;;4968682;28;20481;-68
2021/01/31 04:17:28;;;;;;;4.47;4.17;;;19.40;39.30;;;;;;4972053;28;20488;-68
2021/01/31 04:19:54;;;;;;;3.70;3.40;;;19.40;39.40;;;;;;4971278;28;21233;-68
2021/01/31 04:22:20;;;;;;;3.00;2.90;;;19.40;39.30;;;;;;4967041;28;21003;-68
2021/01/31 04:24:47;;;;;;;3.23;3.10;;;19.50;39.40;;;;;;4971135;28;20489;-68
2021/01/31 04:27:13;;;;;;;2.83;2.70;;;19.40;39.70;;;;;;4970888;28;20505;-68
2021/01/31 04:29:39;;;;;;;3.20;3.00;;;19.40;40.20;;;;;;4964914;28;20466;-68
2021/01/31 04:32:06;;;;;;;2.83;2.67;;;19.40;39.40;;;;;;5029731;28;20486;-68
2021/01/31 04:34:33;;;;;;;3.00;2.90;;;19.40;39.50;;;;;;4977047;28;20490;-70
2021/01/31 04:36:59;;;;;;;3.43;3.27;;;19.40;39.70;;;;;;4967323;28;20512;-67
2021/01/31 04:39:25;;;;;;;3.43;3.23;;;19.40;39.40;;;;;;4972297;28;20578;-68
2021/01/31 04:41:51;;;;;;;3.67;3.37;;;19.40;39.60;;;;;;4968820;28;20493;-68
2021/01/31 04:44:19;;;;;;;3.20;3.00;;;19.50;39.80;;;;;;4968085;28;20493;-68
2021/01/31 04:46:46;;;;;;;2.80;2.70;;;19.50;39.80;;;;;;5027861;28;20501;-68
2021/01/31 04:49:27;;;;;;;3.50;3.30;;;19.50;39.90;;;;;;4970808;28;20478;-68
2021/01/31 04:52:23;;;;;;;3.30;3.00;;;19.50;39.70;;;;;;4964795;28;20485;-68
2021/01/31 04:55:08;;;;;;;2.90;2.70;;;19.50;39.50;;;;;;5023568;28;20558;-68
2021/01/31 04:57:38;;;;;;;3.13;2.93;;;19.40;39.60;;;;;;5033834;28;20468;-67
2021/01/31 05:00:16;;;;;;;3.40;3.10;;;19.40;39.60;;;;;;4974173;28;20498;-68
2021/01/31 05:02:43;;;;;;;3.20;3.00;;;19.40;39.40;;;;;;4970616;28;20478;-67
2021/01/31 05:05:15;;;;;;;3.10;2.90;;;19.40;39.50;;;;;;4966618;28;20528;-68
2021/01/31 05:07:44;;;;;;;3.57;3.27;;;19.40;39.30;;;;;;4970551;28;20481;-68
2021/01/31 05:10:11;;;;;;;3.30;3.10;;;19.40;39.60;;;;;;4970813;28;20482;-68
2021/01/31 05:12:39;;;;;;;2.90;2.70;;;19.40;39.60;;;;;;4969075;28;20479;-68
2021/01/31 05:15:12;;;;;;;2.80;2.37;;;19.40;40.00;;;;;;4966091;28;20502;-68
2021/01/31 05:17:38;;;;;;;3.07;2.87;;;19.40;39.60;;;;;;4970795;28;20480;-69
2021/01/31 05:20:05;;;;;;;3.10;3.00;;;19.40;39.90;;;;;;4968851;28;20486;-70
2021/01/31 05:22:34;;;;;;;2.53;2.43;;;19.40;39.60;;;;;;4970558;28;20471;-69
2021/01/31 05:25:00;;;;;;;2.80;2.70;;;19.40;40.20;;;;;;4969476;28;20580;-68
2021/01/31 05:27:28;;;;;;;2.50;2.33;;;19.40;40.00;;;;;;4970622;28;20516;-68
2021/01/31 05:29:55;;;;;;;3.20;3.00;;;19.30;39.70;;;;;;4967915;28;20493;-68
2021/01/31 05:32:21;;;;;;;3.20;2.90;;;19.40;39.70;;;;;;4997722;28;20511;-69
2021/01/31 05:34:49;;;;;;;2.70;2.60;;;19.30;39.60;;;;;;5037722;28;21572;-68
2021/01/31 05:37:16;;;;;;;3.10;2.83;;;19.30;40.00;;;;;;5010320;28;20490;-68
2021/01/31 05:39:45;;;;;;;2.73;2.63;;;19.30;40.20;;;;;;5017739;28;20472;-68
2021/01/31 05:42:14;;;;;;;2.67;2.53;;;19.30;40.30;;;;;;4992276;28;20895;-68
2021/01/31 05:44:40;;;;;;;2.40;2.20;;;19.30;40.50;;;;;;4969084;28;20488;-68
2021/01/31 05:47:16;;;;;;;2.40;2.30;;;19.30;40.70;;;;;;4968142;28;20494;-69
2021/01/31 05:49:43;;;;;;;2.10;2.00;;;19.30;40.40;;;;;;4974027;28;20465;-69
2021/01/31 05:52:28;;;;;;;2.47;2.37;;;19.30;40.20;;;;;;4971461;28;20507;-68
2021/01/31 05:54:55;;;;;;;3.13;2.83;;;19.30;40.00;;;;;;4971966;28;20477;-68
2021/01/31 05:57:23;;;;;;;3.20;3.00;;;19.30;39.90;;;;;;4971684;28;20497;-68
2021/01/31 05:59:49;;;;;;;1.90;1.90;;;19.20;39.90;;;;;;4970543;28;20485;-68
2021/01/31 06:02:20;;;;;;;2.93;2.80;;;19.20;39.90;;;;;;5026974;28;20566;-69
2021/01/31 06:04:46;;;;;;;3.03;2.83;;;19.20;40.10;;;;;;4970733;28;20546;-68
2021/01/31 06:07:13;;;;;;;2.80;2.60;;;19.20;39.60;;;;;;4971549;28;20482;-68
2021/01/31 06:09:40;;;;;;;5.27;3.33;;;19.10;39.60;;;;;;4987544;28;20605;-68
2021/01/31 06:12:10;;;;;;;3.17;2.97;;;19.20;39.40;;;;;;4998764;28;21522;-68
2021/01/31 06:14:37;;;;;;;2.57;2.47;;;19.20;39.60;;;;;;4994340;28;20477;-68
2021/01/31 06:17:05;;;;;;;3.17;2.97;;;19.20;39.30;;;;;;4998391;28;20511;-68
2021/01/31 06:19:33;;;;;;;2.30;2.20;;;19.30;39.40;;;;;;5021351;28;20493;-68
2021/01/31 06:21:59;;;;;;;2.67;2.47;;;19.30;39.30;;;;;;4971448;28;20491;-69
2021/01/31 06:24:27;;;;;;;2.10;2.00;;;19.30;39.40;;;;;;4973245;28;20558;-70
2021/01/31 06:26:54;;;;;;;2.57;2.47;;;19.30;39.20;;;;;;4971228;28;20489;-68
2021/01/31 06:29:39;;;;;;;2.57;2.37;;;19.40;39.30;;;;;;4969532;28;20526;-68
2021/01/31 06:32:07;;;;;;;3.10;2.87;;;19.40;39.10;;;;;;4976227;28;20489;-68
2021/01/31 06:34:34;;;;;;;2.43;2.33;;;19.40;39.30;;;;;;4986820;28;20493;-68
2021/01/31 06:37:15;;;;;;;3.40;3.10;;;19.40;39.00;;;;;;5024252;28;20489;-69
2021/01/31 06:39:48;;;;;;;2.20;2.10;;;19.40;39.20;;;;;;4979462;28;21725;-69
2021/01/31 06:42:19;;;;;;;2.73;2.60;;;19.40;38.90;;;;;;4978477;28;20553;-68
2021/01/31 06:44:59;;;;;;;2.83;2.73;;;19.40;39.00;;;;;;5053831;28;20470;-68
2021/01/31 06:47:40;;;;;;;3.20;3.00;;;19.40;38.90;;;;;;4986885;28;20529;-68
2021/01/31 06:50:09;;;;;;;3.03;2.80;;;19.50;38.80;;;;;;5018635;28;20479;-69
2021/01/31 06:52:43;;;;;;;3.03;2.87;;;19.50;38.70;;;;;;4971928;28;21042;-68
2021/01/31 06:55:17;;;;;;;3.13;2.93;;;19.50;38.60;;;;;;4968586;28;20494;-68
2021/01/31 06:58:20;;;;;;;2.60;2.50;;;19.50;38.90;;;;;;4969936;28;20482;-69
2021/01/31 07:01:07;;;;;;;2.40;2.30;;;19.50;38.90;;;;;;5017760;28;21129;-67
2021/01/31 07:03:59;;;;;;;2.30;2.20;;;19.50;38.60;;;;;;4981169;28;20471;-69
2021/01/31 07:06:34;;;;;;;3.13;2.93;;;19.50;38.40;;;;;;4965276;28;20508;-68
2021/01/31 07:09:06;;;;;;;2.70;2.57;;;19.50;38.40;;;;;;4968811;28;20485;-68
2021/01/31 07:11:35;;;;;;;3.10;3.00;;;19.50;38.50;;;;;;4972748;28;20498;-67
2021/01/31 07:14:27;;;;;;;2.73;2.53;;;19.50;38.50;;;;;;4967924;28;20624;-68
2021/01/31 07:16:58;;;;;;;3.83;3.50;;;19.60;38.80;;;;;;5020582;28;20596;-69
2021/01/31 07:19:26;;;;;;;3.17;2.97;;;19.60;38.60;;;;;;4987895;28;20522;-68
2021/01/31 07:21:56;;;;;;;2.50;2.40;;;19.60;38.60;;;;;;4968518;28;20485;-68
2021/01/31 07:24:25;;;;;;;2.80;2.70;;;19.60;38.50;;;;;;4966205;28;20477;-68
2021/01/31 07:26:52;;;;;;;3.53;3.23;;;19.60;38.20;;;;;;5015344;28;20488;-68
2021/01/31 07:29:21;;;;;;;3.03;2.80;;;19.60;38.50;;;;;;4989958;28;20493;-68
2021/01/31 07:31:48;;;;;;;3.27;3.07;;;19.60;37.70;;;;;;5033438;28;20534;-69
2021/01/31 07:34:20;;;;;;;2.50;2.30;;;19.60;37.50;;;;;;5040448;28;20497;-68
2021/01/31 07:37:06;;;;;;;3.10;2.90;;;19.60;38.00;;;;;;5033184;28;21293;-69
2021/01/31 07:39:36;;;;;;;3.47;3.00;;;19.70;37.60;;;;;;4972478;28;20561;-68
2021/01/31 07:42:03;;;;;;;2.67;2.20;;;19.60;37.80;;;;;;4969454;28;21025;-68
2021/01/31 07:44:31;;;;;;;2.13;2.00;;;19.70;37.70;;;;;;5043221;28;20482;-69
2021/01/31 07:46:57;;;;;;;2.80;2.70;;;19.70;37.60;;;;;;4972921;28;20489;-68
2021/01/31 07:49:25;;;;;;;2.83;2.73;;;19.70;37.60;;;;;;4973295;28;20481;-68
2021/01/31 07:52:09;;;;;;;2.70;2.60;;;19.70;37.60;;;;;;4967932;28;20522;-68
2021/01/31 07:54:36;;;;;;;2.80;2.60;;;19.70;37.60;;;;;;4969333;28;20504;-67
2021/01/31 07:57:26;;;;;;;3.10;3.00;;;19.60;37.50;;;;;;4971147;28;20498;-69
2021/01/31 07:59:52;;;;;;;2.83;2.70;;;19.60;37.60;;;;;;4966407;28;20481;-68
2021/01/31 08:02:37;;;;;;;3.53;3.33;;;19.60;37.60;;;;;;4971855;28;20489;-70
2021/01/31 08:05:05;;;;;;;2.80;2.60;;;19.60;37.50;;;;;;4965177;28;20494;-69
2021/01/31 08:08:00;;;;;;;2.67;2.57;;;19.60;37.50;;;;;;4989082;28;20490;-68
2021/01/31 08:10:45;;;;;;;2.70;2.50;;;19.60;37.60;;;;;;5006020;28;20577;-69
2021/01/31 08:13:13;;;;;;;2.50;2.40;;;19.60;37.50;;;;;;4965598;28;20483;-68
2021/01/31 08:15:40;;;;;;;2.53;2.43;;;19.60;37.50;;;;;;4974028;28;20581;-69
2021/01/31 08:18:11;;;;;;;2.70;2.60;;;19.60;37.50;;;;;;5040072;28;20474;-68
2021/01/31 08:20:43;;;;;;;2.70;2.50;;;19.60;37.50;;;;;;5027348;28;20476;-69
2021/01/31 08:23:55;;;;;;;3.40;2.77;;;19.60;37.50;;;;;;4965255;28;20884;-68
2021/01/31 08:26:40;;;;;;;2.40;2.30;;;19.60;37.50;;;;;;5028454;28;20477;-68
2021/01/31 08:29:28;;;;;;;2.40;2.30;;;19.60;37.50;;;;;;4966089;28;20494;-68
2021/01/31 08:32:16;;;;;;;2.30;2.20;;;19.60;37.50;;;;;;4969033;28;20485;-68
2021/01/31 08:35:19;;;;;;;3.13;2.77;;;19.60;37.50;;;;;;4967828;28;20512;-69
2021/01/31 08:37:49;;;;;;;2.80;2.60;;;19.60;37.50;;;;;;4971508;28;20477;-68
2021/01/31 08:40:24;;;;;;;2.63;2.43;;;19.60;37.50;;;;;;4969568;28;20470;-68
2021/01/31 08:42:54;;;;;;;2.50;2.40;;;19.60;37.60;;;;;;5024879;28;20485;-68
2021/01/31 08:45:21;;;;;;;2.13;2.03;;;19.60;37.50;;;;;;5026135;28;21008;-68
2021/01/31 08:47:47;;;;;;;2.40;2.30;;;19.60;37.60;;;;;;5034921;28;20484;-69
2021/01/31 08:50:16;;;;;;;2.60;2.50;;;19.60;37.50;;;;;;4974308;28;20474;-68
2021/01/31 08:52:42;;;;;;;2.23;2.13;;;19.60;37.50;;;;;;4966329;28;20483;-68
2021/01/31 08:55:10;;;;;;;2.57;2.37;;;19.60;37.50;;;;;;4968767;28;21025;-68
2021/01/31 08:57:37;;;;;;;2.37;2.27;;;19.60;37.60;;;;;;4971335;28;21385;-67
2021/01/31 09:00:12;;;;;;;2.60;2.50;;;19.60;37.50;;;;;;4966864;28;20670;-68
2021/01/31 09:02:42;;;;;;;3.00;2.90;;;19.60;37.60;;;;;;4968765;28;20487;-68
2021/01/31 09:05:12;;;;;;;2.83;2.67;;;19.60;37.50;;;;;;4966830;28;20585;-68
2021/01/31 09:07:39;;;;;;;2.57;2.47;;;19.60;37.50;;;;;;4970236;28;21054;-68
2021/01/31 09:10:07;;;;;;;2.70;2.60;;;19.60;37.50;;;;;;4970546;28;20489;-69
2021/01/31 09:12:34;;;;;;;2.50;2.40;;;19.60;37.50;;;;;;4969878;28;20516;-69
2021/01/31 09:15:09;;;;;;;2.63;2.43;;;19.60;37.60;;;;;;4968351;28;20513;-69
2021/01/31 09:17:35;;;;;;;2.87;2.67;;;19.60;37.50;;;;;;4970298;28;20492;-68
2021/01/31 09:20:13;;;;;;;2.23;1.83;;;19.60;37.50;;;;;;4970131;28;20493;-68
2021/01/31 09:22:40;;;;;;;2.23;2.13;;;19.50;37.40;;;;;;4969170;28;20555;-68
2021/01/31 09:25:07;;;;;;;2.17;2.07;;;19.60;37.60;;;;;;4971641;28;21775;-68
2021/01/31 09:27:44;;;;;;;2.23;2.13;;;19.60;37.50;;;;;;4976992;28;21054;-70
2021/01/31 09:30:11;;;;;;;2.70;2.50;;;19.60;37.50;;;;;;4970172;28;20478;-68
2021/01/31 09:32:39;;;;;;;2.40;2.30;;;19.60;37.50;;;;;;4973204;28;20481;-69
2021/01/31 09:35:06;;;;;;;2.30;2.20;;;19.60;37.50;;;;;;4972044;28;20502;-68
2021/01/31 09:37:33;;;;;;;2.90;2.70;;;19.60;37.50;;;;;;4973548;28;20524;-68
2021/01/31 09:40:00;;;;;;;2.43;2.33;;;19.60;37.50;;;;;;4975117;28;20485;-70
2021/01/31 09:42:28;;;;;;;2.43;2.23;;;19.60;37.50;;;;;;4972099;28;20489;-68
2021/01/31 09:44:57;;;;;;;2.63;2.53;;;19.60;37.50;;;;;;4971984;28;20493;-69
2021/01/31 09:47:23;;;;;;;2.80;2.40;;;19.60;37.50;;;;;;4974312;28;20489;-68
2021/01/31 09:49:51;;;;;;;2.67;2.57;;;19.60;37.50;;;;;;4989843;28;20535;-69
2021/01/31 09:52:17;;;;;;;2.37;2.27;;;19.60;37.50;;;;;;4984162;28;20467;-68
2021/01/31 09:54:43;;;;;;;2.70;2.60;;;19.60;37.50;;;;;;5039525;28;20483;-68
2021/01/31 09:57:17;;;;;;;2.20;2.10;;;19.60;37.50;;;;;;4978801;28;20500;-68
2021/01/31 09:59:44;;;;;;;2.90;2.40;;;19.60;37.50;;;;;;4974482;28;20469;-68
2021/01/31 10:02:12;;;;;;;2.53;2.40;;;19.60;37.50;;;;;;4973545;28;20930;-68
2021/01/31 10:04:38;;;;;;;2.97;2.77;;;19.60;37.50;;;;;;4972038;28;20474;-68
2021/01/31 10:07:06;;;;;;;1.70;1.60;;;19.60;37.50;;;;;;4971881;28;20973;-67
2021/01/31 10:09:33;;;;;;;2.27;2.17;;;19.60;37.50;;;;;;4974429;28;20484;-69
2021/01/31 10:12:29;;;;;;;2.23;2.13;;;19.60;37.50;;;;;;4974937;28;20517;-67
2021/01/31 10:14:57;;;;;;;2.47;2.27;;;19.70;37.60;;;;;;4969328;28;20488;-68
2021/01/31 10:17:39;;;;;;;2.07;1.90;;;19.70;37.60;;;;;;4973404;28;20486;-68
2021/01/31 10:20:28;;;;;;;2.50;2.40;;;19.60;37.50;;;;;;4972039;28;20505;-68
2021/01/31 10:22:55;;;;;;;2.70;2.60;;;19.60;37.60;;;;;;4973726;28;20694;-68
2021/01/31 10:25:21;;;;;;;2.37;2.27;;;19.70;37.60;;;;;;4969634;28;20508;-68
2021/01/31 10:27:48;;;;;;;3.10;2.90;;;19.60;37.50;;;;;;4972492;28;20481;-68
2021/01/31 10:30:23;;;;;;;2.60;2.50;;;19.60;37.60;;;;;;4969436;28;20486;-68
2021/01/31 10:32:50;;;;;;;2.27;2.17;;;19.60;37.50;;;;;;5029007;28;20616;-68
2021/01/31 10:35:31;;;;;;;2.13;2.03;;;19.60;37.50;;;;;;4967458;28;21037;-68
2021/01/31 10:37:58;;;;;;;2.70;2.60;;;19.60;37.50;;;;;;4969478;28;20581;-67
2021/01/31 10:40:24;;;;;;;2.20;2.03;;;19.60;37.50;;;;;;4972635;28;20494;-68
2021/01/31 10:42:50;;;;;;;2.63;2.53;;;19.60;37.50;;;;;;4970628;28;20494;-68
2021/01/31 10:45:18;;;;;;;2.80;2.60;;;19.60;37.50;;;;;;4971538;28;20486;-68
2021/01/31 10:47:45;;;;;;;2.77;2.60;;;19.60;37.50;;;;;;4973613;28;20489;-69
2021/01/31 10:50:13;;;;;;;2.50;2.40;;;19.60;37.50;;;;;;4972663;28;20483;-69
2021/01/31 10:52:39;;;;;;;2.40;2.30;;;19.60;37.50;;;;;;5010533;28;20587;-68
2021/01/31 10:55:07;;;;;;;2.10;2.00;;;19.60;37.50;;;;;;5000061;28;20489;-68
2021/01/31 10:57:33;;;;;;;2.17;2.07;;;19.60;37.50;;;;;;4972738;28;20559;-69
2021/01/31 10:59:59;;;;;;;2.60;2.40;;;19.70;37.60;;;;;;4966279;28;20490;-68
2021/01/31 11:02:25;;;;;;;3.03;2.23;;;19.70;37.60;;;;;;4972249;28;20477;-68
2021/01/31 11:04:51;;;;;;;2.57;2.03;;;19.60;37.50;;;;;;4965157;28;20543;-68
2021/01/31 11:07:18;;;;;;;2.13;2.03;;;19.60;37.50;;;;;;5025952;28;20488;-68
2021/01/31 11:09:44;;;;;;;2.57;2.10;;;19.60;37.50;;;;;;4972173;28;20486;-68
2021/01/31 11:12:11;;;;;;;2.23;2.13;;;19.60;37.60;;;;;;5036953;28;20482;-69
2021/01/31 11:14:37;;;;;;;1.93;1.83;;;19.60;37.50;;;;;;4976065;28;20538;-68
2021/01/31 11:17:03;;;;;;;2.57;2.37;;;19.60;37.50;;;;;;4971950;28;20498;-69
2021/01/31 11:19:29;;;;;;;2.10;2.00;;;19.60;37.50;;;;;;4974101;28;20493;-68
2021/01/31 11:21:55;;;;;;;2.27;2.17;;;19.60;37.50;;;;;;4969633;28;20493;-68
2021/01/31 11:24:22;;;;;;;2.10;1.97;;;19.60;37.50;;;;;;4972123;28;21203;-68
2021/01/31 11:26:49;;;;;;;2.93;2.73;;;19.70;37.60;;;;;;4972582;28;20481;-68
2021/01/31 11:29:15;;;;;;;2.20;2.00;;;19.70;37.60;;;;;;5032656;28;20483;-68
2021/01/31 11:31:41;;;;;;;2.50;2.40;;;19.70;37.70;;;;;;4973132;28;20493;-67
2021/01/31 11:34:07;;;;;;;2.13;2.03;;;19.70;37.60;;;;;;5011033;28;20562;-68
2021/01/31 11:36:33;;;;;;;2.23;2.13;;;19.60;37.50;;;;;;4999754;28;20551;-69
2021/01/31 11:39:06;;;;;;;2.40;2.30;;;19.60;37.50;;;;;;4967821;28;20494;-68
2021/01/31 11:41:33;;;;;;;2.70;2.50;;;19.60;37.50;;;;;;4972147;28;20480;-68
2021/01/31 11:43:59;;;;;;;2.70;2.50;;;19.60;37.50;;;;;;4970111;28;20486;-68
2021/01/31 11:46:26;;;;;;;2.63;2.43;;;19.60;37.50;;;;;;4960152;28;20540;-69
2021/01/31 11:48:52;;;;;;;2.90;2.80;;;19.60;37.50;;;;;;5047965;28;20852;-68
2021/01/31 11:51:18;;;;;;;2.37;2.27;;;19.60;37.50;;;;;;4969007;28;20858;-68
2021/01/31 11:53:44;;;;;;;1.70;1.70;;;19.60;37.50;;;;;;4972725;28;20489;-68
2021/01/31 11:56:10;;;;;;;2.57;2.47;;;19.60;37.50;;;;;;4970063;28;21074;-68
2021/01/31 11:58:37;;;;;;;2.70;2.60;;;19.60;37.50;;;;;;4972638;28;20484;-68
2021/01/31 12:01:03;;;;;;;2.37;2.27;;;19.60;37.50;;;;;;4970767;28;20489;-68
2021/01/31 12:03:29;;;;;;;3.00;2.90;;;19.70;37.60;;;;;;4970202;28;20482;-69
2021/01/31 12:05:56;;;;;;;2.53;2.43;;;19.60;37.50;;;;;;4967404;28;20497;-68
2021/01/31 12:08:22;;;;;;;3.00;2.80;;;19.60;37.50;;;;;;4971012;28;21064;-68
2021/01/31 12:10:48;;;;;;;2.37;2.20;;;19.60;37.50;;;;;;4969888;28;20970;-68
2021/01/31 12:13:14;;;;;;;2.90;2.33;;;19.60;37.50;;;;;;4968464;28;20992;-68
2021/01/31 12:15:41;;;;;;;3.20;3.00;;;19.60;37.50;;;;;;5033532;28;21085;-69
2021/01/31 12:18:07;;;;;;;2.20;2.10;;;19.60;37.50;;;;;;4978117;28;20500;-69
2021/01/31 12:20:33;;;;;;;2.40;2.30;;;19.60;37.50;;;;;;4969792;28;20485;-68
2021/01/31 12:22:59;;;;;;;2.63;2.43;;;19.60;37.50;;;;;;4967216;28;20498;-68
2021/01/31 12:25:26;;;;;;;2.40;2.20;;;19.60;37.50;;;;;;4967520;28;20547;-68
2021/01/31 12:27:52;;;;;;;2.00;1.90;;;19.60;37.50;;;;;;5021203;28;20481;-68
2021/01/31 12:30:20;;;;;;;2.20;2.10;;;19.70;37.60;;;;;;4989165;28;20993;-68
2021/01/31 12:32:47;;;;;;;1.90;1.90;;;19.70;37.70;;;;;;4968917;28;21086;-68
2021/01/31 12:35:13;;;;;;;2.20;2.10;;;19.60;38.00;;;;;;4967286;28;20476;-69
2021/01/31 12:37:39;;;;;;;2.70;2.50;;;19.60;37.50;;;;;;4967140;28;20486;-68
2021/01/31 12:40:07;;;;;;;2.33;2.23;;;19.60;37.50;;;;;;4968831;28;20489;-69
2021/01/31 12:42:33;;;;;;;2.33;2.17;;;19.60;37.50;;;;;;5016272;28;20488;-68
2021/01/31 12:44:59;;;;;;;2.43;2.33;;;19.60;37.50;;;;;;5035590;28;20482;-68
2021/01/31 12:47:25;;;;;;;2.70;2.50;;;19.60;37.50;;;;;;5036007;28;20897;-69
2021/01/31 12:49:53;;;;;;;2.63;2.43;;;19.60;37.50;;;;;;4984402;28;20495;-68
2021/01/31 12:52:19;;;;;;;2.37;2.27;;;19.60;37.60;;;;;;5025408;28;20532;-68
2021/01/31 12:54:45;;;;;;;2.73;2.53;;;19.60;37.50;;;;;;4966843;28;20485;-68
2021/01/31 12:57:11;;;;;;;2.43;2.27;;;19.60;37.60;;;;;;4965796;28;20492;-68
2021/01/31 12:59:37;;;;;;;2.50;2.40;;;19.60;37.50;;;;;;5007836;28;20480;-68